sensor_id;sensor_type;location;lat;lon;timestamp;pressure;altitude;pressure_sealevel;temperature
10869;BMP180;62667;48.698;8.762;2024-01-06T00:00:26;94725.00;;;3.80
10869;BMP180;62667;48.698;8.762;2024-01-06T00:02:54;94730.00;;;3.70
10869;BMP180;62667;48.698;8.762;2024-01-06T00:05:21;94728.00;;;3.80
10869;BMP180;62667;48.698;8.762;2024-01-06T00:07:48;94727.00;;;3.60
10869;BMP180;62667;48.698;8.762;2024-01-06T00:10:16;94730.00;;;3.50
10869;BMP180;62667;48.698;8.762;2024-01-06T00:12:45;94740.00;;;3.60
10869;BMP180;62667;48.698;8.762;2024-01-06T00:15:14;94735.00;;;3.60
10869;BMP180;62667;48.698;8.762;2024-01-06T00:17:42;94730.00;;;3.60
10869;BMP180;62667;48.698;8.762;2024-01-06T00:20:10;94735.00;;;3.60
10869;BMP180;62667;48.698;8.762;2024-01-06T00:22:39;94730.00;;;3.60
10869;BMP180;62667;48.698;8.762;2024-01-06T00:25:08;94728.00;;;3.60
10869;BMP180;62667;48.698;8.762;2024-01-06T00:27:35;94728.00;;;3.70
10869;BMP180;62667;48.698;8.762;2024-01-06T00:30:05;94730.00;;;3.70
10869;BMP180;62667;48.698;8.762;2024-01-06T00:32:32;94729.00;;;3.70
10869;BMP180;62667;48.698;8.762;2024-01-06T00:35:00;94726.00;;;3.70
10869;BMP180;62667;48.698;8.762;2024-01-06T00:37:27;94735.00;;;3.70
10869;BMP180;62667;48.698;8.762;2024-01-06T00:39:54;94741.00;;;3.70
10869;BMP180;62667;48.698;8.762;2024-01-06T00:42:22;94736.00;;;3.70
10869;BMP180;62667;48.698;8.762;2024-01-06T00:44:49;94745.00;;;3.70
10869;BMP180;62667;48.698;8.762;2024-01-06T00:47:18;94747.00;;;3.70
10869;BMP180;62667;48.698;8.762;2024-01-06T00:49:48;94749.00;;;3.70
10869;BMP180;62667;48.698;8.762;2024-01-06T00:52:15;94755.00;;;3.70
10869;BMP180;62667;48.698;8.762;2024-01-06T00:54:43;94760.00;;;3.70
10869;BMP180;62667;48.698;8.762;2024-01-06T00:57:10;94758.00;;;3.60
10869;BMP180;62667;48.698;8.762;2024-01-06T00:59:37;94766.00;;;3.60
10869;BMP180;62667;48.698;8.762;2024-01-06T01:02:05;94769.00;;;3.60
10869;BMP180;62667;48.698;8.762;2024-01-06T01:04:34;94779.00;;;3.60
10869;BMP180;62667;48.698;8.762;2024-01-06T01:07:01;94785.00;;;3.60
10869;BMP180;62667;48.698;8.762;2024-01-06T01:09:28;94780.00;;;3.60
10869;BMP180;62667;48.698;8.762;2024-01-06T01:11:55;94787.00;;;3.70
10869;BMP180;62667;48.698;8.762;2024-01-06T01:14:23;94781.00;;;3.60
10869;BMP180;62667;48.698;8.762;2024-01-06T01:16:50;94773.00;;;3.70
10869;BMP180;62667;48.698;8.762;2024-01-06T01:19:19;94776.00;;;3.60
10869;BMP180;62667;48.698;8.762;2024-01-06T01:21:46;94772.00;;;3.60
10869;BMP180;62667;48.698;8.762;2024-01-06T01:24:14;94767.00;;;3.70
10869;BMP180;62667;48.698;8.762;2024-01-06T01:26:41;94786.00;;;3.70
10869;BMP180;62667;48.698;8.762;2024-01-06T01:29:08;94797.00;;;3.60
10869;BMP180;62667;48.698;8.762;2024-01-06T01:31:36;94779.00;;;3.70
10869;BMP180;62667;48.698;8.762;2024-01-06T01:34:03;94789.00;;;3.70
10869;BMP180;62667;48.698;8.762;2024-01-06T01:36:30;94789.00;;;3.70
10869;BMP180;62667;48.698;8.762;2024-01-06T01:38:59;94799.00;;;3.50
10869;BMP180;62667;48.698;8.762;2024-01-06T01:41:26;94793.00;;;3.60
10869;BMP180;62667;48.698;8.762;2024-01-06T01:43:54;94798.00;;;3.60
10869;BMP180;62667;48.698;8.762;2024-01-06T01:46:25;94801.00;;;3.60
10869;BMP180;62667;48.698;8.762;2024-01-06T01:48:53;94815.00;;;3.60
10869;BMP180;62667;48.698;8.762;2024-01-06T01:51:21;94806.00;;;3.50
10869;BMP180;62667;48.698;8.762;2024-01-06T01:53:49;94813.00;;;3.50
10869;BMP180;62667;48.698;8.762;2024-01-06T01:56:19;94814.00;;;3.60
10869;BMP180;62667;48.698;8.762;2024-01-06T01:58:47;94829.00;;;3.60
10869;BMP180;62667;48.698;8.762;2024-01-06T02:01:14;94818.00;;;3.60
10869;BMP180;62667;48.698;8.762;2024-01-06T02:03:42;94818.00;;;3.70
10869;BMP180;62667;48.698;8.762;2024-01-06T02:06:10;94823.00;;;3.60
10869;BMP180;62667;48.698;8.762;2024-01-06T02:08:38;94819.00;;;3.70
10869;BMP180;62667;48.698;8.762;2024-01-06T02:11:06;94823.00;;;3.70
10869;BMP180;62667;48.698;8.762;2024-01-06T02:13:37;94827.00;;;3.60
10869;BMP180;62667;48.698;8.762;2024-01-06T02:16:05;94842.00;;;3.60
10869;BMP180;62667;48.698;8.762;2024-01-06T02:18:33;94829.00;;;3.50
10869;BMP180;62667;48.698;8.762;2024-01-06T02:21:02;94823.00;;;3.60
10869;BMP180;62667;48.698;8.762;2024-01-06T02:23:31;94833.00;;;3.60
10869;BMP180;62667;48.698;8.762;2024-01-06T02:26:01;94836.00;;;3.60
10869;BMP180;62667;48.698;8.762;2024-01-06T02:28:28;94836.00;;;3.60
10869;BMP180;62667;48.698;8.762;2024-01-06T02:30:56;94836.00;;;3.60
10869;BMP180;62667;48.698;8.762;2024-01-06T02:33:23;94853.00;;;3.60
10869;BMP180;62667;48.698;8.762;2024-01-06T02:35:51;94852.00;;;3.60
10869;BMP180;62667;48.698;8.762;2024-01-06T02:38:18;94845.00;;;3.60
10869;BMP180;62667;48.698;8.762;2024-01-06T02:40:47;94848.00;;;3.60
10869;BMP180;62667;48.698;8.762;2024-01-06T02:43:14;94850.00;;;3.60
10869;BMP180;62667;48.698;8.762;2024-01-06T02:45:41;94844.00;;;3.60
10869;BMP180;62667;48.698;8.762;2024-01-06T02:48:09;94853.00;;;3.60
10869;BMP180;62667;48.698;8.762;2024-01-06T02:50:36;94842.00;;;3.60
10869;BMP180;62667;48.698;8.762;2024-01-06T02:53:04;94849.00;;;3.60
10869;BMP180;62667;48.698;8.762;2024-01-06T02:55:31;94834.00;;;3.60
10869;BMP180;62667;48.698;8.762;2024-01-06T02:58:00;94845.00;;;3.50
10869;BMP180;62667;48.698;8.762;2024-01-06T03:00:27;94855.00;;;3.50
10869;BMP180;62667;48.698;8.762;2024-01-06T03:02:54;94849.00;;;3.40
10869;BMP180;62667;48.698;8.762;2024-01-06T03:05:22;94851.00;;;3.40
10869;BMP180;62667;48.698;8.762;2024-01-06T03:07:49;94849.00;;;3.50
10869;BMP180;62667;48.698;8.762;2024-01-06T03:10:16;94846.00;;;3.50
10869;BMP180;62667;48.698;8.762;2024-01-06T03:12:44;94845.00;;;3.50
10869;BMP180;62667;48.698;8.762;2024-01-06T03:15:13;94838.00;;;3.40
10869;BMP180;62667;48.698;8.762;2024-01-06T03:17:40;94841.00;;;3.40
10869;BMP180;62667;48.698;8.762;2024-01-06T03:20:08;94829.00;;;3.40
10869;BMP180;62667;48.698;8.762;2024-01-06T03:22:36;94832.00;;;3.30
10869;BMP180;62667;48.698;8.762;2024-01-06T03:25:05;94837.00;;;3.30
10869;BMP180;62667;48.698;8.762;2024-01-06T03:27:32;94840.00;;;3.30
10869;BMP180;62667;48.698;8.762;2024-01-06T03:29:59;94844.00;;;3.30
10869;BMP180;62667;48.698;8.762;2024-01-06T03:32:28;94833.00;;;3.30
10869;BMP180;62667;48.698;8.762;2024-01-06T03:34:56;94845.00;;;3.30
10869;BMP180;62667;48.698;8.762;2024-01-06T03:37:25;94837.00;;;3.30
10869;BMP180;62667;48.698;8.762;2024-01-06T03:39:52;94842.00;;;3.50
10869;BMP180;62667;48.698;8.762;2024-01-06T03:42:19;94839.00;;;3.50
10869;BMP180;62667;48.698;8.762;2024-01-06T03:44:47;94829.00;;;3.50
10869;BMP180;62667;48.698;8.762;2024-01-06T03:47:14;94830.00;;;3.50
10869;BMP180;62667;48.698;8.762;2024-01-06T03:49:43;94833.00;;;3.50
10869;BMP180;62667;48.698;8.762;2024-01-06T03:52:10;94829.00;;;3.40
10869;BMP180;62667;48.698;8.762;2024-01-06T03:54:38;94837.00;;;3.50
10869;BMP180;62667;48.698;8.762;2024-01-06T03:57:05;94835.00;;;3.50
10869;BMP180;62667;48.698;8.762;2024-01-06T03:59:32;94832.00;;;3.50
10869;BMP180;62667;48.698;8.762;2024-01-06T04:02:00;94836.00;;;3.50
10869;BMP180;62667;48.698;8.762;2024-01-06T04:04:27;94839.00;;;3.60
10869;BMP180;62667;48.698;8.762;2024-01-06T04:06:59;94837.00;;;3.50
10869;BMP180;62667;48.698;8.762;2024-01-06T04:09:27;94839.00;;;3.50
10869;BMP180;62667;48.698;8.762;2024-01-06T04:11:54;94833.00;;;3.50
10869;BMP180;62667;48.698;8.762;2024-01-06T04:14:22;94840.00;;;3.50
10869;BMP180;62667;48.698;8.762;2024-01-06T04:16:49;94842.00;;;3.40
10869;BMP180;62667;48.698;8.762;2024-01-06T04:19:18;94839.00;;;3.50
10869;BMP180;62667;48.698;8.762;2024-01-06T04:21:46;94848.00;;;3.50
10869;BMP180;62667;48.698;8.762;2024-01-06T04:24:16;94838.00;;;3.50
10869;BMP180;62667;48.698;8.762;2024-01-06T04:26:43;94846.00;;;3.60
10869;BMP180;62667;48.698;8.762;2024-01-06T04:29:12;94843.00;;;3.50
10869;BMP180;62667;48.698;8.762;2024-01-06T04:31:40;94844.00;;;3.40
10869;BMP180;62667;48.698;8.762;2024-01-06T04:34:07;94843.00;;;3.40
10869;BMP180;62667;48.698;8.762;2024-01-06T04:36:34;94839.00;;;3.70
10869;BMP180;62667;48.698;8.762;2024-01-06T04:39:02;94845.00;;;3.60
10869;BMP180;62667;48.698;8.762;2024-01-06T04:41:31;94848.00;;;3.70
10869;BMP180;62667;48.698;8.762;2024-01-06T04:43:58;94846.00;;;3.70
10869;BMP180;62667;48.698;8.762;2024-01-06T04:46:25;94847.00;;;3.70
10869;BMP180;62667;48.698;8.762;2024-01-06T04:48:53;94848.00;;;3.50
10869;BMP180;62667;48.698;8.762;2024-01-06T04:51:20;94851.00;;;3.70
10869;BMP180;62667;48.698;8.762;2024-01-06T04:53:47;94847.00;;;3.50
10869;BMP180;62667;48.698;8.762;2024-01-06T04:56:15;94853.00;;;3.50
10869;BMP180;62667;48.698;8.762;2024-01-06T04:58:43;94854.00;;;3.60
10869;BMP180;62667;48.698;8.762;2024-01-06T05:01:11;94853.00;;;3.60
10869;BMP180;62667;48.698;8.762;2024-01-06T05:03:38;94849.00;;;3.60
10869;BMP180;62667;48.698;8.762;2024-01-06T05:06:06;94854.00;;;3.80
10869;BMP180;62667;48.698;8.762;2024-01-06T05:08:33;94856.00;;;3.60
10869;BMP180;62667;48.698;8.762;2024-01-06T05:11:05;94853.00;;;3.70
10869;BMP180;62667;48.698;8.762;2024-01-06T05:13:33;94860.00;;;3.80
10869;BMP180;62667;48.698;8.762;2024-01-06T05:16:02;94860.00;;;3.60
10869;BMP180;62667;48.698;8.762;2024-01-06T05:18:29;94855.00;;;3.60
10869;BMP180;62667;48.698;8.762;2024-01-06T05:20:57;94857.00;;;3.50
10869;BMP180;62667;48.698;8.762;2024-01-06T05:23:24;94853.00;;;3.40
10869;BMP180;62667;48.698;8.762;2024-01-06T05:25:52;94852.00;;;3.50
10869;BMP180;62667;48.698;8.762;2024-01-06T05:28:19;94862.00;;;3.60
10869;BMP180;62667;48.698;8.762;2024-01-06T05:30:47;94866.00;;;3.70
10869;BMP180;62667;48.698;8.762;2024-01-06T05:33:16;94860.00;;;3.60
10869;BMP180;62667;48.698;8.762;2024-01-06T05:35:44;94860.00;;;3.60
10869;BMP180;62667;48.698;8.762;2024-01-06T05:38:11;94865.00;;;3.80
10869;BMP180;62667;48.698;8.762;2024-01-06T05:40:39;94868.00;;;3.60
10869;BMP180;62667;48.698;8.762;2024-01-06T05:43:06;94870.00;;;3.70
10869;BMP180;62667;48.698;8.762;2024-01-06T05:45:33;94874.00;;;3.70
10869;BMP180;62667;48.698;8.762;2024-01-06T05:48:01;94890.00;;;3.80
10869;BMP180;62667;48.698;8.762;2024-01-06T05:50:30;94903.00;;;3.70
10869;BMP180;62667;48.698;8.762;2024-01-06T05:52:58;94899.00;;;3.70
10869;BMP180;62667;48.698;8.762;2024-01-06T05:55:25;94892.00;;;3.70
10869;BMP180;62667;48.698;8.762;2024-01-06T05:57:53;94887.00;;;3.60
10869;BMP180;62667;48.698;8.762;2024-01-06T06:00:20;94897.00;;;3.60
10869;BMP180;62667;48.698;8.762;2024-01-06T06:02:48;94905.00;;;3.60
10869;BMP180;62667;48.698;8.762;2024-01-06T06:05:15;94903.00;;;3.60
10869;BMP180;62667;48.698;8.762;2024-01-06T06:07:44;94918.00;;;3.50
10869;BMP180;62667;48.698;8.762;2024-01-06T06:10:11;94911.00;;;3.50
10869;BMP180;62667;48.698;8.762;2024-01-06T06:12:39;94922.00;;;3.50
10869;BMP180;62667;48.698;8.762;2024-01-06T06:15:07;94920.00;;;3.60
10869;BMP180;62667;48.698;8.762;2024-01-06T06:17:35;94922.00;;;3.60
10869;BMP180;62667;48.698;8.762;2024-01-06T06:20:02;94931.00;;;3.70
10869;BMP180;62667;48.698;8.762;2024-01-06T06:22:32;94932.00;;;3.70
10869;BMP180;62667;48.698;8.762;2024-01-06T06:25:01;94934.00;;;3.70
10869;BMP180;62667;48.698;8.762;2024-01-06T06:27:31;94938.00;;;3.80
10869;BMP180;62667;48.698;8.762;2024-01-06T06:29:59;94939.00;;;3.70
10869;BMP180;62667;48.698;8.762;2024-01-06T06:32:26;94950.00;;;3.70
10869;BMP180;62667;48.698;8.762;2024-01-06T06:34:53;94953.00;;;3.70
10869;BMP180;62667;48.698;8.762;2024-01-06T06:37:21;94942.00;;;3.70
10869;BMP180;62667;48.698;8.762;2024-01-06T06:39:48;94958.00;;;3.70
10869;BMP180;62667;48.698;8.762;2024-01-06T06:42:17;94957.00;;;3.70
10869;BMP180;62667;48.698;8.762;2024-01-06T06:44:44;94961.00;;;3.70
10869;BMP180;62667;48.698;8.762;2024-01-06T06:47:12;94965.00;;;3.50
10869;BMP180;62667;48.698;8.762;2024-01-06T06:49:40;94962.00;;;3.50
10869;BMP180;62667;48.698;8.762;2024-01-06T06:52:07;94969.00;;;3.70
10869;BMP180;62667;48.698;8.762;2024-01-06T06:54:35;94973.00;;;3.80
10869;BMP180;62667;48.698;8.762;2024-01-06T06:57:02;94984.00;;;3.80
10869;BMP180;62667;48.698;8.762;2024-01-06T06:59:31;94985.00;;;3.80
10869;BMP180;62667;48.698;8.762;2024-01-06T07:01:58;94980.00;;;3.80
10869;BMP180;62667;48.698;8.762;2024-01-06T07:04:26;94985.00;;;3.90
10869;BMP180;62667;48.698;8.762;2024-01-06T07:06:53;94990.00;;;3.70
10869;BMP180;62667;48.698;8.762;2024-01-06T07:09:21;94985.00;;;3.70
10869;BMP180;62667;48.698;8.762;2024-01-06T07:11:50;94988.00;;;3.70
10869;BMP180;62667;48.698;8.762;2024-01-06T07:14:18;94990.00;;;3.60
10869;BMP180;62667;48.698;8.762;2024-01-06T07:16:46;94990.00;;;3.60
10869;BMP180;62667;48.698;8.762;2024-01-06T07:19:14;94992.00;;;3.60
10869;BMP180;62667;48.698;8.762;2024-01-06T07:21:41;94988.00;;;3.40
10869;BMP180;62667;48.698;8.762;2024-01-06T07:24:08;94987.00;;;3.70
10869;BMP180;62667;48.698;8.762;2024-01-06T07:26:36;94990.00;;;3.70
10869;BMP180;62667;48.698;8.762;2024-01-06T07:29:03;94980.00;;;3.70
10869;BMP180;62667;48.698;8.762;2024-01-06T07:31:31;94982.00;;;3.60
10869;BMP180;62667;48.698;8.762;2024-01-06T07:33:59;94974.00;;;3.40
10869;BMP180;62667;48.698;8.762;2024-01-06T07:36:27;94979.00;;;3.40
10869;BMP180;62667;48.698;8.762;2024-01-06T07:38:54;94990.00;;;3.50
10869;BMP180;62667;48.698;8.762;2024-01-06T07:41:22;94989.00;;;3.50
10869;BMP180;62667;48.698;8.762;2024-01-06T07:43:51;94995.00;;;3.50
10869;BMP180;62667;48.698;8.762;2024-01-06T07:46:19;94998.00;;;3.60
10869;BMP180;62667;48.698;8.762;2024-01-06T07:48:46;94993.00;;;3.50
10869;BMP180;62667;48.698;8.762;2024-01-06T07:51:15;94990.00;;;3.70
10869;BMP180;62667;48.698;8.762;2024-01-06T07:53:43;94994.00;;;3.70
10869;BMP180;62667;48.698;8.762;2024-01-06T07:56:10;94998.00;;;3.60
10869;BMP180;62667;48.698;8.762;2024-01-06T07:58:38;95005.00;;;3.60
10869;BMP180;62667;48.698;8.762;2024-01-06T08:01:05;95001.00;;;3.60
10869;BMP180;62667;48.698;8.762;2024-01-06T08:03:32;95002.00;;;3.70
10869;BMP180;62667;48.698;8.762;2024-01-06T08:06:00;94999.00;;;3.70
10869;BMP180;62667;48.698;8.762;2024-01-06T08:08:29;95005.00;;;3.80
10869;BMP180;62667;48.698;8.762;2024-01-06T08:10:56;95004.00;;;3.80
10869;BMP180;62667;48.698;8.762;2024-01-06T08:13:23;94996.00;;;3.80
10869;BMP180;62667;48.698;8.762;2024-01-06T08:15:51;95007.00;;;3.70
10869;BMP180;62667;48.698;8.762;2024-01-06T08:18:18;95011.00;;;3.80
10869;BMP180;62667;48.698;8.762;2024-01-06T08:20:47;95010.00;;;3.90
10869;BMP180;62667;48.698;8.762;2024-01-06T08:23:14;95013.00;;;3.90
10869;BMP180;62667;48.698;8.762;2024-01-06T08:25:43;95016.00;;;3.80
10869;BMP180;62667;48.698;8.762;2024-01-06T08:28:12;95020.00;;;3.80
10869;BMP180;62667;48.698;8.762;2024-01-06T08:30:40;95017.00;;;3.90
10869;BMP180;62667;48.698;8.762;2024-01-06T08:33:08;95020.00;;;3.90
10869;BMP180;62667;48.698;8.762;2024-01-06T08:35:36;95020.00;;;3.90
10869;BMP180;62667;48.698;8.762;2024-01-06T08:38:06;95025.00;;;4.10
10869;BMP180;62667;48.698;8.762;2024-01-06T08:40:33;95034.00;;;4.10
10869;BMP180;62667;48.698;8.762;2024-01-06T08:43:02;95029.00;;;4.10
10869;BMP180;62667;48.698;8.762;2024-01-06T08:45:30;95027.00;;;4.00
10869;BMP180;62667;48.698;8.762;2024-01-06T08:47:57;95035.00;;;3.90
10869;BMP180;62667;48.698;8.762;2024-01-06T08:50:24;95037.00;;;4.00
10869;BMP180;62667;48.698;8.762;2024-01-06T08:52:52;95039.00;;;4.30
10869;BMP180;62667;48.698;8.762;2024-01-06T08:55:20;95027.00;;;4.10
10869;BMP180;62667;48.698;8.762;2024-01-06T08:57:47;95032.00;;;4.00
10869;BMP180;62667;48.698;8.762;2024-01-06T09:00:17;95031.00;;;4.30
10869;BMP180;62667;48.698;8.762;2024-01-06T09:02:45;95041.00;;;4.30
10869;BMP180;62667;48.698;8.762;2024-01-06T09:05:12;95039.00;;;4.30
10869;BMP180;62667;48.698;8.762;2024-01-06T09:07:39;95029.00;;;4.20
10869;BMP180;62667;48.698;8.762;2024-01-06T09:10:08;95039.00;;;4.30
10869;BMP180;62667;48.698;8.762;2024-01-06T09:12:35;95042.00;;;4.50
10869;BMP180;62667;48.698;8.762;2024-01-06T09:15:03;95039.00;;;4.40
10869;BMP180;62667;48.698;8.762;2024-01-06T09:17:32;95046.00;;;4.60
10869;BMP180;62667;48.698;8.762;2024-01-06T09:20:00;95044.00;;;4.60
10869;BMP180;62667;48.698;8.762;2024-01-06T09:22:28;95045.00;;;4.60
10869;BMP180;62667;48.698;8.762;2024-01-06T09:24:55;95047.00;;;4.50
10869;BMP180;62667;48.698;8.762;2024-01-06T09:27:23;95048.00;;;4.30
10869;BMP180;62667;48.698;8.762;2024-01-06T09:29:51;95051.00;;;4.50
10869;BMP180;62667;48.698;8.762;2024-01-06T09:32:18;95056.00;;;4.40
10869;BMP180;62667;48.698;8.762;2024-01-06T09:34:47;95054.00;;;4.50
10869;BMP180;62667;48.698;8.762;2024-01-06T09:37:14;95050.00;;;4.50
10869;BMP180;62667;48.698;8.762;2024-01-06T09:39:41;95056.00;;;4.40
10869;BMP180;62667;48.698;8.762;2024-01-06T09:42:09;95072.00;;;4.40
10869;BMP180;62667;48.698;8.762;2024-01-06T09:44:37;95068.00;;;4.20
10869;BMP180;62667;48.698;8.762;2024-01-06T09:47:09;95085.00;;;4.20
10869;BMP180;62667;48.698;8.762;2024-01-06T09:49:39;95078.00;;;4.20
10869;BMP180;62667;48.698;8.762;2024-01-06T09:52:13;95076.00;;;4.30
10869;BMP180;62667;48.698;8.762;2024-01-06T09:54:46;95078.00;;;4.30
10869;BMP180;62667;48.698;8.762;2024-01-06T09:57:14;95074.00;;;4.20
10869;BMP180;62667;48.698;8.762;2024-01-06T09:59:44;95070.00;;;4.50
10869;BMP180;62667;48.698;8.762;2024-01-06T10:02:15;95072.00;;;4.50
10869;BMP180;62667;48.698;8.762;2024-01-06T10:04:43;95073.00;;;4.60
10869;BMP180;62667;48.698;8.762;2024-01-06T10:07:11;95071.00;;;4.60
10869;BMP180;62667;48.698;8.762;2024-01-06T10:09:41;95066.00;;;4.40
10869;BMP180;62667;48.698;8.762;2024-01-06T10:12:09;95072.00;;;4.50
10869;BMP180;62667;48.698;8.762;2024-01-06T10:14:37;95071.00;;;4.50
10869;BMP180;62667;48.698;8.762;2024-01-06T10:17:06;95076.00;;;4.60
10869;BMP180;62667;48.698;8.762;2024-01-06T10:19:35;95075.00;;;4.60
10869;BMP180;62667;48.698;8.762;2024-01-06T10:22:04;95073.00;;;4.60
10869;BMP180;62667;48.698;8.762;2024-01-06T10:24:37;95080.00;;;4.70
10869;BMP180;62667;48.698;8.762;2024-01-06T10:27:05;95078.00;;;4.40
10869;BMP180;62667;48.698;8.762;2024-01-06T10:29:32;95089.00;;;4.50
10869;BMP180;62667;48.698;8.762;2024-01-06T10:32:00;95085.00;;;4.80
10869;BMP180;62667;48.698;8.762;2024-01-06T10:34:27;95083.00;;;4.60
10869;BMP180;62667;48.698;8.762;2024-01-06T10:36:55;95083.00;;;4.60
10869;BMP180;62667;48.698;8.762;2024-01-06T10:39:23;95084.00;;;4.50
10869;BMP180;62667;48.698;8.762;2024-01-06T10:41:52;95077.00;;;4.60
10869;BMP180;62667;48.698;8.762;2024-01-06T10:44:21;95091.00;;;4.90
10869;BMP180;62667;48.698;8.762;2024-01-06T10:46:50;95078.00;;;4.70
10869;BMP180;62667;48.698;8.762;2024-01-06T10:49:20;95087.00;;;4.80
10869;BMP180;62667;48.698;8.762;2024-01-06T10:51:49;95088.00;;;4.90
10869;BMP180;62667;48.698;8.762;2024-01-06T10:54:18;95085.00;;;5.10
10869;BMP180;62667;48.698;8.762;2024-01-06T10:56:46;95088.00;;;5.00
10869;BMP180;62667;48.698;8.762;2024-01-06T10:59:15;95075.00;;;4.80
10869;BMP180;62667;48.698;8.762;2024-01-06T11:01:44;95075.00;;;4.80
10869;BMP180;62667;48.698;8.762;2024-01-06T11:04:12;95077.00;;;4.80
10869;BMP180;62667;48.698;8.762;2024-01-06T11:06:40;95087.00;;;4.80
10869;BMP180;62667;48.698;8.762;2024-01-06T11:09:11;95078.00;;;4.90
10869;BMP180;62667;48.698;8.762;2024-01-06T11:11:41;95077.00;;;4.80
10869;BMP180;62667;48.698;8.762;2024-01-06T11:14:21;95079.00;;;5.10
10869;BMP180;62667;48.698;8.762;2024-01-06T11:16:49;95083.00;;;5.20
10869;BMP180;62667;48.698;8.762;2024-01-06T11:19:42;95080.00;;;5.40
10869;BMP180;62667;48.698;8.762;2024-01-06T11:22:21;95076.00;;;5.40
10869;BMP180;62667;48.698;8.762;2024-01-06T11:24:49;95081.00;;;5.50
10869;BMP180;62667;48.698;8.762;2024-01-06T11:27:21;95077.00;;;5.60
10869;BMP180;62667;48.698;8.762;2024-01-06T11:29:51;95084.00;;;5.50
10869;BMP180;62667;48.698;8.762;2024-01-06T11:32:25;95072.00;;;5.50
10869;BMP180;62667;48.698;8.762;2024-01-06T11:34:54;95064.00;;;5.60
10869;BMP180;62667;48.698;8.762;2024-01-06T11:37:35;95065.00;;;5.60
10869;BMP180;62667;48.698;8.762;2024-01-06T11:40:04;95059.00;;;5.40
10869;BMP180;62667;48.698;8.762;2024-01-06T11:42:35;95062.00;;;5.60
10869;BMP180;62667;48.698;8.762;2024-01-06T11:45:06;95061.00;;;5.60
10869;BMP180;62667;48.698;8.762;2024-01-06T11:47:34;95051.00;;;5.40
10869;BMP180;62667;48.698;8.762;2024-01-06T11:50:02;95055.00;;;5.60
10869;BMP180;62667;48.698;8.762;2024-01-06T11:52:30;95058.00;;;5.60
10869;BMP180;62667;48.698;8.762;2024-01-06T11:54:58;95049.00;;;5.40
10869;BMP180;62667;48.698;8.762;2024-01-06T11:57:26;95049.00;;;5.30
10869;BMP180;62667;48.698;8.762;2024-01-06T11:59:53;95055.00;;;5.40
10869;BMP180;62667;48.698;8.762;2024-01-06T12:02:22;95056.00;;;5.40
10869;BMP180;62667;48.698;8.762;2024-01-06T12:04:50;95041.00;;;5.50
10869;BMP180;62667;48.698;8.762;2024-01-06T12:07:18;95035.00;;;5.40
10869;BMP180;62667;48.698;8.762;2024-01-06T12:09:48;95029.00;;;5.50
10869;BMP180;62667;48.698;8.762;2024-01-06T12:12:17;95034.00;;;5.70
10869;BMP180;62667;48.698;8.762;2024-01-06T12:14:44;95036.00;;;5.90
10869;BMP180;62667;48.698;8.762;2024-01-06T12:17:13;95042.00;;;5.90
10869;BMP180;62667;48.698;8.762;2024-01-06T12:19:42;95039.00;;;5.70
10869;BMP180;62667;48.698;8.762;2024-01-06T12:22:12;95042.00;;;5.60
10869;BMP180;62667;48.698;8.762;2024-01-06T12:24:40;95039.00;;;5.70
10869;BMP180;62667;48.698;8.762;2024-01-06T12:27:09;95034.00;;;5.80
10869;BMP180;62667;48.698;8.762;2024-01-06T12:29:38;95025.00;;;5.50
10869;BMP180;62667;48.698;8.762;2024-01-06T12:32:06;95037.00;;;5.60
10869;BMP180;62667;48.698;8.762;2024-01-06T12:34:34;95025.00;;;5.50
10869;BMP180;62667;48.698;8.762;2024-01-06T12:37:03;95028.00;;;5.70
10869;BMP180;62667;48.698;8.762;2024-01-06T12:39:31;95029.00;;;5.60
10869;BMP180;62667;48.698;8.762;2024-01-06T12:41:58;95036.00;;;5.50
10869;BMP180;62667;48.698;8.762;2024-01-06T12:44:27;95037.00;;;5.40
10869;BMP180;62667;48.698;8.762;2024-01-06T12:46:54;95034.00;;;5.30
10869;BMP180;62667;48.698;8.762;2024-01-06T12:49:24;95028.00;;;5.40
10869;BMP180;62667;48.698;8.762;2024-01-06T12:51:51;95033.00;;;5.20
10869;BMP180;62667;48.698;8.762;2024-01-06T12:54:23;95033.00;;;5.20
10869;BMP180;62667;48.698;8.762;2024-01-06T12:56:50;95034.00;;;5.20
10869;BMP180;62667;48.698;8.762;2024-01-06T12:59:18;95027.00;;;5.20
10869;BMP180;62667;48.698;8.762;2024-01-06T13:01:45;95027.00;;;5.10
10869;BMP180;62667;48.698;8.762;2024-01-06T13:04:13;95028.00;;;5.10
10869;BMP180;62667;48.698;8.762;2024-01-06T13:06:43;95037.00;;;5.00
10869;BMP180;62667;48.698;8.762;2024-01-06T13:09:10;95031.00;;;5.00
10869;BMP180;62667;48.698;8.762;2024-01-06T13:11:43;95036.00;;;5.10
10869;BMP180;62667;48.698;8.762;2024-01-06T13:14:12;95034.00;;;5.00
10869;BMP180;62667;48.698;8.762;2024-01-06T13:16:39;95039.00;;;5.00
10869;BMP180;62667;48.698;8.762;2024-01-06T13:19:07;95037.00;;;5.00
10869;BMP180;62667;48.698;8.762;2024-01-06T13:21:35;95040.00;;;5.00
10869;BMP180;62667;48.698;8.762;2024-01-06T13:24:06;95035.00;;;4.80
10869;BMP180;62667;48.698;8.762;2024-01-06T13:26:33;95031.00;;;4.90
10869;BMP180;62667;48.698;8.762;2024-01-06T13:29:03;95042.00;;;4.90
10869;BMP180;62667;48.698;8.762;2024-01-06T13:31:30;95040.00;;;5.00
10869;BMP180;62667;48.698;8.762;2024-01-06T13:33:58;95041.00;;;4.80
10869;BMP180;62667;48.698;8.762;2024-01-06T13:36:26;95055.00;;;4.90
10869;BMP180;62667;48.698;8.762;2024-01-06T13:38:56;95044.00;;;4.90
10869;BMP180;62667;48.698;8.762;2024-01-06T13:41:26;95051.00;;;4.90
10869;BMP180;62667;48.698;8.762;2024-01-06T13:43:53;95062.00;;;4.90
10869;BMP180;62667;48.698;8.762;2024-01-06T13:46:22;95057.00;;;4.90
10869;BMP180;62667;48.698;8.762;2024-01-06T13:48:51;95054.00;;;4.90
10869;BMP180;62667;48.698;8.762;2024-01-06T13:51:18;95065.00;;;4.80
10869;BMP180;62667;48.698;8.762;2024-01-06T13:53:46;95060.00;;;4.80
10869;BMP180;62667;48.698;8.762;2024-01-06T13:56:13;95067.00;;;4.80
10869;BMP180;62667;48.698;8.762;2024-01-06T13:58:40;95070.00;;;4.90
10869;BMP180;62667;48.698;8.762;2024-01-06T14:01:08;95067.00;;;4.80
10869;BMP180;62667;48.698;8.762;2024-01-06T14:03:38;95067.00;;;4.80
10869;BMP180;62667;48.698;8.762;2024-01-06T14:06:06;95074.00;;;4.80
10869;BMP180;62667;48.698;8.762;2024-01-06T14:08:35;95080.00;;;4.70
10869;BMP180;62667;48.698;8.762;2024-01-06T14:11:02;95081.00;;;4.70
10869;BMP180;62667;48.698;8.762;2024-01-06T14:13:31;95078.00;;;4.70
10869;BMP180;62667;48.698;8.762;2024-01-06T14:15:59;95083.00;;;4.80
10869;BMP180;62667;48.698;8.762;2024-01-06T14:18:26;95078.00;;;4.80
10869;BMP180;62667;48.698;8.762;2024-01-06T14:20:55;95086.00;;;4.80
10869;BMP180;62667;48.698;8.762;2024-01-06T14:23:23;95081.00;;;4.80
10869;BMP180;62667;48.698;8.762;2024-01-06T14:25:50;95084.00;;;4.80